JZR702 OKKK-OBBI
Flight info
| Callsign | JZR702 |
|---|---|
| Flight time | 0h 44m |
| Altitude | 27000 |
| Route | BOXIK B416 IMDOX P975 LONOS L703 KOBOK |
| Aircraft | A320/M-SDE3FGHIRWY/LB1 |
Departure
| Time | 2026-05-04 15:39 |
|---|---|
| Airport | Kuwait International Airport (OKKK) |
Arrival
| Time | 2026-05-04 16:24 |
|---|---|
| Airport | Bahrain International Airport (OBBI) |
| Time | Latitude | Longitude | Altitude | Speed | Heading |
|---|---|---|---|---|---|
| 2026-05-04 15:10 | 29.23801 | 47.97298 | 167 ft | 0 kts | 245° |
| 2026-05-04 15:26 | 29.23806 | 47.97309 | 167 ft | 4 kts | 243° |
| 2026-05-04 15:27 | 29.23819 | 47.97336 | 167 ft | 4 kts | 238° |
| 2026-05-04 15:27 | 29.23847 | 47.97376 | 167 ft | 4 kts | 187° |
| 2026-05-04 15:28 | 29.23878 | 47.97372 | 167 ft | 0 kts | 168° |
| 2026-05-04 15:31 | 29.23875 | 47.97373 | 167 ft | 4 kts | 166° |
| 2026-05-04 15:31 | 29.23805 | 47.97408 | 167 ft | 15 kts | 154° |
| 2026-05-04 15:32 | 29.23634 | 47.97396 | 167 ft | 9 kts | 244° |
| 2026-05-04 15:32 | 29.23588 | 47.97276 | 167 ft | 13 kts | 247° |
| 2026-05-04 15:33 | 29.23516 | 47.97096 | 166 ft | 11 kts | 245° |
| 2026-05-04 15:34 | 29.23504 | 47.97067 | 166 ft | 6 kts | 246° |
| 2026-05-04 15:34 | 29.23536 | 47.97004 | 166 ft | 12 kts | 335° |
| 2026-05-04 15:34 | 29.23612 | 47.96882 | 165 ft | 16 kts | 245° |
| 2026-05-04 15:35 | 29.23536 | 47.96689 | 163 ft | 8 kts | 274° |
| 2026-05-04 15:35 | 29.23576 | 47.96655 | 163 ft | 7 kts | 335° |
| 2026-05-04 15:35 | 29.23645 | 47.96618 | 164 ft | 15 kts | 335° |
| 2026-05-04 15:36 | 29.23885 | 47.96491 | 164 ft | 22 kts | 335° |
| 2026-05-04 15:36 | 29.24007 | 47.96426 | 164 ft | 16 kts | 334° |
| 2026-05-04 15:36 | 29.24073 | 47.96389 | 164 ft | 6 kts | 333° |
| 2026-05-04 15:37 | 29.24093 | 47.96356 | 163 ft | 5 kts | 284° |
| 2026-05-04 15:37 | 29.24081 | 47.96306 | 161 ft | 9 kts | 244° |
| 2026-05-04 15:37 | 29.24045 | 47.96221 | 160 ft | 12 kts | 245° |
| 2026-05-04 15:37 | 29.23997 | 47.96183 | 160 ft | 8 kts | 180° |
| 2026-05-04 15:38 | 29.23966 | 47.96196 | 160 ft | 0 kts | 155° |
| 2026-05-04 15:38 | 29.23961 | 47.96199 | 160 ft | 5 kts | 155° |
| 2026-05-04 15:38 | 29.23693 | 47.96343 | 159 ft | 81 kts | 155° |
| 2026-05-04 15:39 | 29.22988 | 47.96721 | 163 ft | 141 kts | 155° |
| 2026-05-04 15:39 | 29.21988 | 47.97266 | 447 ft | 164 kts | 155° |
| 2026-05-04 15:39 | 29.20150 | 47.98726 | 1698 ft | 168 kts | 119° |
| 2026-05-04 15:40 | 29.19574 | 47.99977 | 1890 ft | 188 kts | 116° |
| 2026-05-04 15:40 | 29.18965 | 48.01383 | 2053 ft | 211 kts | 116° |
| 2026-05-04 15:40 | 29.18279 | 48.02962 | 2199 ft | 234 kts | 116° |
| 2026-05-04 15:40 | 29.17514 | 48.04707 | 2425 ft | 257 kts | 116° |
| 2026-05-04 15:41 | 29.16680 | 48.06588 | 2907 ft | 270 kts | 116° |
| 2026-05-04 15:41 | 29.15809 | 48.08523 | 3589 ft | 277 kts | 117° |
| 2026-05-04 15:41 | 29.15137 | 48.10590 | 4288 ft | 280 kts | 97° |
| 2026-05-04 15:41 | 29.15077 | 48.12830 | 5006 ft | 284 kts | 89° |
| 2026-05-04 15:42 | 29.15091 | 48.15098 | 5753 ft | 287 kts | 89° |
| 2026-05-04 15:42 | 29.15106 | 48.17392 | 6478 ft | 289 kts | 88° |
| 2026-05-04 15:42 | 29.15117 | 48.19701 | 7172 ft | 293 kts | 89° |
| 2026-05-04 15:42 | 29.15124 | 48.22044 | 7858 ft | 296 kts | 89° |
| 2026-05-04 15:43 | 29.15081 | 48.24411 | 8509 ft | 300 kts | 97° |
| 2026-05-04 15:43 | 29.14443 | 48.26691 | 9136 ft | 305 kts | 120° |
| 2026-05-04 15:43 | 29.13225 | 48.28702 | 9797 ft | 309 kts | 126° |
| 2026-05-04 15:43 | 29.11932 | 48.30708 | 10266 ft | 320 kts | 127° |
| 2026-05-04 15:44 | 29.10559 | 48.32819 | 10404 ft | 342 kts | 127° |
| 2026-05-04 15:44 | 29.09093 | 48.35071 | 10537 ft | 363 kts | 127° |
| 2026-05-04 15:44 | 29.07561 | 48.37426 | 10921 ft | 374 kts | 127° |
| 2026-05-04 15:44 | 29.06004 | 48.39828 | 11519 ft | 378 kts | 127° |
| 2026-05-04 15:45 | 29.04433 | 48.42256 | 12140 ft | 381 kts | 127° |
| 2026-05-04 15:45 | 29.02854 | 48.44703 | 12775 ft | 384 kts | 127° |
| 2026-05-04 15:45 | 29.01261 | 48.47168 | 13411 ft | 387 kts | 127° |
| 2026-05-04 15:45 | 28.99649 | 48.49656 | 14019 ft | 390 kts | 127° |
| 2026-05-04 15:46 | 28.98026 | 48.52159 | 14610 ft | 393 kts | 127° |
| 2026-05-04 15:46 | 28.96392 | 48.54678 | 15198 ft | 396 kts | 127° |
| 2026-05-04 15:46 | 28.94744 | 48.57214 | 15769 ft | 400 kts | 127° |
| 2026-05-04 15:46 | 28.93081 | 48.59772 | 16340 ft | 403 kts | 127° |
| 2026-05-04 15:47 | 28.91428 | 48.62312 | 16894 ft | 406 kts | 127° |
| 2026-05-04 15:47 | 28.89739 | 48.64905 | 17446 ft | 409 kts | 127° |
| 2026-05-04 15:47 | 28.88034 | 48.67524 | 17988 ft | 412 kts | 127° |
| 2026-05-04 15:47 | 28.86317 | 48.70156 | 18535 ft | 415 kts | 128° |
| 2026-05-04 15:48 | 28.84590 | 48.72805 | 19056 ft | 418 kts | 128° |
| 2026-05-04 15:48 | 28.82850 | 48.75477 | 19592 ft | 421 kts | 128° |
| 2026-05-04 15:48 | 28.79514 | 48.81033 | 20594 ft | 429 kts | 120° |
| 2026-05-04 15:49 | 28.78066 | 48.84011 | 21055 ft | 431 kts | 120° |
| 2026-05-04 15:49 | 28.76601 | 48.87012 | 21504 ft | 434 kts | 120° |
| 2026-05-04 15:49 | 28.75124 | 48.90028 | 21941 ft | 437 kts | 120° |
| 2026-05-04 15:49 | 28.73631 | 48.93068 | 22367 ft | 440 kts | 121° |
| 2026-05-04 15:50 | 28.72134 | 48.96119 | 22783 ft | 443 kts | 121° |
| 2026-05-04 15:50 | 28.70623 | 48.99193 | 23181 ft | 445 kts | 121° |
| 2026-05-04 15:50 | 28.69104 | 49.02277 | 23557 ft | 448 kts | 121° |
| 2026-05-04 15:50 | 28.67575 | 49.05376 | 23919 ft | 450 kts | 121° |
| 2026-05-04 15:51 | 28.66034 | 49.08499 | 24263 ft | 453 kts | 121° |
| 2026-05-04 15:51 | 28.64488 | 49.11631 | 24599 ft | 456 kts | 121° |
| 2026-05-04 15:51 | 28.62950 | 49.14749 | 24924 ft | 458 kts | 121° |
| 2026-05-04 15:51 | 28.61384 | 49.17918 | 25245 ft | 461 kts | 121° |
| 2026-05-04 15:52 | 28.59655 | 49.20990 | 25553 ft | 461 kts | 129° |
| 2026-05-04 15:52 | 28.57524 | 49.23711 | 25858 ft | 460 kts | 139° |
| 2026-05-04 15:52 | 28.55039 | 49.26007 | 26154 ft | 460 kts | 148° |
| 2026-05-04 15:52 | 28.52281 | 49.27833 | 26445 ft | 459 kts | 155° |
| 2026-05-04 15:53 | 28.49566 | 49.29776 | 26697 ft | 465 kts | 144° |
| 2026-05-04 15:53 | 28.47109 | 49.32195 | 26771 ft | 468 kts | 141° |
| 2026-05-04 15:53 | 28.44685 | 49.34661 | 26776 ft | 468 kts | 141° |
| 2026-05-04 15:53 | 28.42252 | 49.37126 | 26775 ft | 468 kts | 141° |
| 2026-05-04 15:54 | 28.39814 | 49.39574 | 26776 ft | 468 kts | 141° |
| 2026-05-04 15:54 | 28.37348 | 49.42028 | 26778 ft | 475 kts | 141° |
| 2026-05-04 15:54 | 28.34829 | 49.44514 | 26777 ft | 482 kts | 141° |
| 2026-05-04 15:54 | 28.32288 | 49.47019 | 26788 ft | 485 kts | 141° |
| 2026-05-04 15:55 | 28.29738 | 49.49537 | 26812 ft | 486 kts | 141° |
| 2026-05-04 15:55 | 28.27185 | 49.52054 | 26802 ft | 486 kts | 141° |
| 2026-05-04 15:55 | 28.24628 | 49.54569 | 26804 ft | 486 kts | 141° |
| 2026-05-04 15:55 | 28.22070 | 49.57082 | 26804 ft | 486 kts | 142° |
| 2026-05-04 15:56 | 28.19468 | 49.59533 | 26797 ft | 486 kts | 143° |
| 2026-05-04 15:56 | 28.16841 | 49.61858 | 26794 ft | 485 kts | 145° |
| 2026-05-04 15:56 | 28.14141 | 49.64146 | 26795 ft | 485 kts | 146° |
| 2026-05-04 15:56 | 28.11418 | 49.66404 | 26796 ft | 485 kts | 146° |
| 2026-05-04 15:57 | 28.08693 | 49.68661 | 26795 ft | 485 kts | 146° |
| 2026-05-04 15:57 | 28.05978 | 49.70934 | 26796 ft | 485 kts | 146° |
| 2026-05-04 15:57 | 28.03263 | 49.73204 | 26796 ft | 485 kts | 146° |
| 2026-05-04 15:57 | 28.00510 | 49.75420 | 26799 ft | 485 kts | 147° |
| 2026-05-04 15:58 | 27.97735 | 49.77580 | 26802 ft | 485 kts | 148° |
| 2026-05-04 15:58 | 27.94938 | 49.79716 | 26803 ft | 485 kts | 148° |
| 2026-05-04 15:58 | 27.92135 | 49.81845 | 26802 ft | 484 kts | 148° |
| 2026-05-04 15:58 | 27.89338 | 49.83981 | 26800 ft | 485 kts | 148° |
| 2026-05-04 15:59 | 27.86550 | 49.86126 | 26798 ft | 485 kts | 148° |
| 2026-05-04 15:59 | 27.83769 | 49.88282 | 26794 ft | 485 kts | 148° |
| 2026-05-04 15:59 | 27.80991 | 49.90446 | 26793 ft | 485 kts | 148° |
| 2026-05-04 15:59 | 27.78211 | 49.92610 | 26794 ft | 485 kts | 148° |
| 2026-05-04 16:00 | 27.75430 | 49.94770 | 26794 ft | 485 kts | 148° |
| 2026-05-04 16:00 | 27.72648 | 49.96924 | 26792 ft | 485 kts | 148° |
| 2026-05-04 16:00 | 27.69896 | 49.99050 | 26791 ft | 485 kts | 148° |
| 2026-05-04 16:00 | 27.67110 | 50.01198 | 26789 ft | 484 kts | 148° |
| 2026-05-04 16:01 | 27.64370 | 50.03310 | 26727 ft | 473 kts | 148° |
| 2026-05-04 16:01 | 27.61671 | 50.05389 | 26480 ft | 468 kts | 148° |
| 2026-05-04 16:01 | 27.58985 | 50.07463 | 26230 ft | 467 kts | 148° |
| 2026-05-04 16:01 | 27.56308 | 50.09529 | 25980 ft | 467 kts | 148° |
| 2026-05-04 16:02 | 27.53639 | 50.11587 | 25327 ft | 463 kts | 148° |
| 2026-05-04 16:02 | 27.50988 | 50.13627 | 24602 ft | 459 kts | 148° |
| 2026-05-04 16:02 | 27.45756 | 50.17644 | 23203 ft | 451 kts | 147° |
| 2026-05-04 16:03 | 27.43187 | 50.19631 | 22525 ft | 446 kts | 147° |
| 2026-05-04 16:03 | 27.40665 | 50.21643 | 21887 ft | 442 kts | 146° |
| 2026-05-04 16:03 | 27.38187 | 50.23665 | 21263 ft | 438 kts | 145° |
| 2026-05-04 16:03 | 27.35741 | 50.25684 | 20662 ft | 434 kts | 145° |
| 2026-05-04 16:04 | 27.33318 | 50.27679 | 20087 ft | 430 kts | 145° |
| 2026-05-04 16:04 | 27.28518 | 50.31592 | 18992 ft | 422 kts | 146° |
| 2026-05-04 16:04 | 27.26146 | 50.33508 | 18567 ft | 415 kts | 146° |
| 2026-05-04 16:05 | 27.23821 | 50.35378 | 18195 ft | 408 kts | 146° |
| 2026-05-04 16:05 | 27.21524 | 50.37225 | 17694 ft | 405 kts | 146° |
| 2026-05-04 16:05 | 27.17087 | 50.40800 | 17396 ft | 379 kts | 146° |
| 2026-05-04 16:06 | 27.14979 | 50.42502 | 17268 ft | 367 kts | 146° |
| 2026-05-04 16:06 | 27.09680 | 50.46782 | 16895 ft | 339 kts | 146° |
| 2026-05-04 16:07 | 27.07158 | 50.48814 | 16483 ft | 334 kts | 146° |
| 2026-05-04 16:07 | 27.01564 | 50.53312 | 15666 ft | 321 kts | 145° |
| 2026-05-04 16:08 | 26.99729 | 50.54666 | 15535 ft | 311 kts | 153° |
| 2026-05-04 16:08 | 26.93683 | 50.56582 | 14475 ft | 307 kts | 175° |
| 2026-05-04 16:09 | 26.89567 | 50.58189 | 13433 ft | 318 kts | 157° |
| 2026-05-04 16:09 | 26.85532 | 50.60218 | 12577 ft | 319 kts | 156° |
| 2026-05-04 16:10 | 26.81294 | 50.62316 | 11274 ft | 336 kts | 157° |
| 2026-05-04 16:11 | 26.74824 | 50.65472 | 10279 ft | 345 kts | 157° |
| 2026-05-04 16:11 | 26.72617 | 50.66541 | 10025 ft | 345 kts | 157° |
| 2026-05-04 16:12 | 26.66026 | 50.69717 | 9274 ft | 344 kts | 157° |
| 2026-05-04 16:12 | 26.59457 | 50.72908 | 8251 ft | 341 kts | 157° |
| 2026-05-04 16:13 | 26.55125 | 50.75004 | 7555 ft | 335 kts | 156° |
| 2026-05-04 16:13 | 26.51691 | 50.76656 | 7331 ft | 312 kts | 157° |
| 2026-05-04 16:14 | 26.47814 | 50.78525 | 6772 ft | 298 kts | 157° |
| 2026-05-04 16:14 | 26.44025 | 50.80359 | 5978 ft | 295 kts | 156° |
| 2026-05-04 16:15 | 26.38434 | 50.83061 | 4722 ft | 290 kts | 156° |
| 2026-05-04 16:16 | 26.34870 | 50.84773 | 4394 ft | 267 kts | 157° |
| 2026-05-04 16:16 | 26.30042 | 50.87087 | 3825 ft | 243 kts | 157° |
| 2026-05-04 16:17 | 26.26978 | 50.88566 | 3284 ft | 236 kts | 156° |
| 2026-05-04 16:18 | 26.22674 | 50.87881 | 2664 ft | 212 kts | 212° |
| 2026-05-04 16:18 | 26.21402 | 50.87056 | 2402 ft | 210 kts | 213° |
| 2026-05-04 16:19 | 26.18998 | 50.83571 | 2042 ft | 192 kts | 270° |
| 2026-05-04 16:19 | 26.19015 | 50.80812 | 2001 ft | 170 kts | 273° |
| 2026-05-04 16:20 | 26.19261 | 50.76932 | 1999 ft | 165 kts | 297° |
| 2026-05-04 16:20 | 26.20495 | 50.74760 | 1988 ft | 166 kts | 304° |
| 2026-05-04 16:21 | 26.22368 | 50.71528 | 1442 ft | 165 kts | 304° |
| 2026-05-04 16:22 | 26.23594 | 50.69406 | 1026 ft | 153 kts | 303° |
| 2026-05-04 16:22 | 26.25232 | 50.66568 | 449 ft | 142 kts | 303° |
| 2026-05-04 16:23 | 26.26777 | 50.63902 | 15 ft | 107 kts | 302° |
| 2026-05-04 16:24 | 26.27256 | 50.62840 | 15 ft | 1 kts | 263° |
| 2026-05-04 16:25 | 26.27228 | 50.62833 | 15 ft | 8 kts | 176° |
| 2026-05-04 16:26 | 26.27157 | 50.62896 | 15 ft | 2 kts | 130° |
| 2026-05-04 16:26 | 26.27085 | 50.62895 | 15 ft | 8 kts | 208° |
| 2026-05-04 16:27 | 26.27012 | 50.62927 | 17 ft | 5 kts | 124° |
| 2026-05-04 16:28 | 26.26953 | 50.62965 | 15 ft | 3 kts | 211° |
| 2026-05-04 16:28 | 26.26919 | 50.62941 | 14 ft | 1 kts | 213° |
| 2026-05-04 16:29 | 26.26917 | 50.62939 | 14 ft | 0 kts | 213° |